createdAt,value
2023-03-23T00:00:52.349Z,9.52
2023-03-23T00:03:24.687Z,9.18
2023-03-23T00:05:55.704Z,8.95
2023-03-23T00:08:25.969Z,9.75
2023-03-23T00:11:00.214Z,7.95
2023-03-23T00:13:32.492Z,8.43
2023-03-23T00:16:04.048Z,8.45
2023-03-23T00:18:34.735Z,8.68
2023-03-23T00:21:07.303Z,8.63
2023-03-23T00:23:37.618Z,8.43
2023-03-23T00:26:08.099Z,8.50
2023-03-23T00:28:38.502Z,7.90
2023-03-23T00:31:10.859Z,8.50
2023-03-23T00:33:44.060Z,8.57
2023-03-23T00:36:15.654Z,8.68
2023-03-23T00:38:47.713Z,8.70
2023-03-23T00:41:18.786Z,8.85
2023-03-23T00:43:49.031Z,8.07
2023-03-23T00:46:19.715Z,8.02
2023-03-23T00:48:50.824Z,7.50
2023-03-23T00:51:22.954Z,8.45
2023-03-23T00:53:53.640Z,7.68
2023-03-23T00:56:24.049Z,8.32
2023-03-23T00:58:54.120Z,8.05
2023-03-23T01:01:24.563Z,7.55
2023-03-23T01:03:56.640Z,8.30
2023-03-23T01:06:26.833Z,7.97
2023-03-23T01:08:57.310Z,7.93
2023-03-23T01:13:59.475Z,8.13
2023-03-23T01:16:29.880Z,8.10
2023-03-23T01:19:00.325Z,8.47
2023-03-23T01:21:32.594Z,8.45
2023-03-23T01:24:02.965Z,8.00
2023-03-23T01:26:33.756Z,9.15
2023-03-23T01:29:04.213Z,8.85
2023-03-23T01:31:35.070Z,8.70
2023-03-23T01:34:05.700Z,9.60
2023-03-23T01:36:36.417Z,8.82
2023-03-23T01:39:08.944Z,8.98
2023-03-23T01:41:39.612Z,9.30
2023-03-23T01:44:28.056Z,9.68
2023-03-23T01:47:16.721Z,9.85
2023-03-23T01:49:52.826Z,9.15
2023-03-23T01:52:29.209Z,9.68
2023-03-23T01:55:06.926Z,9.75
2023-03-23T01:57:38.024Z,10.05
2023-03-23T02:00:18.250Z,9.82
2023-03-23T02:02:56.489Z,11.00
2023-03-23T02:05:41.447Z,10.68
2023-03-23T02:08:21.780Z,12.15
2023-03-23T02:10:52.775Z,9.65
2023-03-23T02:13:24.000Z,10.53
2023-03-23T02:18:57.413Z,11.23
2023-03-23T02:21:28.259Z,12.20
2023-03-23T02:24:36.901Z,11.13
2023-03-23T02:27:07.476Z,11.60
2023-03-23T02:29:49.364Z,11.63
2023-03-23T02:32:42.947Z,11.98
2023-03-23T02:35:36.885Z,11.25
2023-03-23T02:38:21.717Z,12.75
2023-03-23T02:40:54.237Z,11.75
2023-03-23T02:43:28.183Z,12.15
2023-03-23T02:46:10.425Z,12.15
2023-03-23T02:48:43.434Z,12.05
2023-03-23T02:54:02.958Z,13.35
2023-03-23T02:57:40.413Z,12.88
2023-03-23T03:01:24.830Z,13.40
2023-03-23T03:04:20.675Z,12.68
2023-03-23T03:07:06.008Z,11.43
2023-03-23T03:10:03.476Z,13.52
2023-03-23T03:12:48.761Z,13.30
2023-03-23T03:15:31.770Z,13.60
2023-03-23T03:18:31.677Z,14.63
2023-03-23T03:21:23.639Z,14.27
2023-03-23T03:24:14.809Z,14.15
2023-03-23T03:26:50.849Z,13.85
2023-03-23T03:32:34.421Z,13.93
2023-03-23T03:35:07.118Z,14.55
2023-03-23T03:37:40.661Z,14.60
2023-03-23T03:40:15.484Z,14.57
2023-03-23T03:43:05.004Z,13.50
2023-03-23T03:45:53.929Z,14.48
2023-03-23T03:51:10.221Z,15.35
2023-03-23T03:53:44.837Z,14.52
2023-03-23T03:56:35.660Z,14.57
2023-03-23T03:59:24.280Z,14.98
2023-03-23T04:02:16.991Z,14.07
2023-03-23T04:05:06.883Z,14.05
2023-03-23T04:10:32.637Z,15.50
2023-03-23T04:13:22.170Z,14.60
2023-03-23T04:16:14.011Z,15.70
2023-03-23T04:21:52.382Z,14.50
2023-03-23T04:24:56.341Z,14.93
2023-03-23T04:27:21.002Z,15.77
2023-03-23T04:29:53.088Z,15.23
2023-03-23T04:32:46.676Z,16.25
2023-03-23T04:35:35.350Z,13.57
2023-03-23T04:38:23.666Z,15.40
2023-03-23T04:41:12.231Z,15.77
2023-03-23T04:43:49.242Z,15.57
2023-03-23T04:46:42.645Z,16.15
2023-03-23T04:49:17.631Z,15.15
2023-03-23T04:52:09.730Z,16.08
2023-03-23T04:54:47.986Z,15.40
2023-03-23T04:57:19.332Z,15.25
2023-03-23T05:00:16.277Z,15.47
2023-03-23T05:03:04.944Z,16.00
2023-03-23T05:05:38.173Z,15.60
2023-03-23T05:08:30.243Z,15.25
2023-03-23T05:11:18.907Z,15.57
2023-03-23T05:13:49.529Z,15.20
2023-03-23T05:16:39.961Z,15.02
2023-03-23T05:19:17.387Z,15.15
2023-03-23T05:21:49.268Z,15.07
2023-03-23T05:24:21.073Z,15.80
2023-03-23T05:27:11.353Z,15.73
2023-03-23T05:29:46.835Z,15.43
2023-03-23T05:32:17.885Z,16.00
2023-03-23T05:34:49.878Z,15.70
2023-03-23T05:39:56.826Z,15.07
2023-03-23T05:42:48.936Z,16.42
2023-03-23T05:45:38.367Z,16.30
2023-03-23T05:48:09.391Z,17.15
2023-03-23T05:50:39.778Z,16.73
2023-03-23T05:53:11.345Z,15.53
2023-03-23T05:55:43.919Z,16.73
2023-03-23T05:58:25.408Z,16.08
2023-03-23T06:00:57.078Z,16.58
2023-03-23T06:03:31.826Z,16.27
2023-03-23T06:06:08.668Z,17.77
2023-03-23T06:08:53.628Z,15.82
2023-03-23T06:11:37.496Z,16.02
2023-03-23T06:14:27.249Z,16.07
2023-03-23T06:16:58.647Z,17.75
2023-03-23T06:19:30.302Z,16.65
2023-03-23T06:22:18.893Z,15.52
2023-03-23T06:25:10.627Z,16.88
2023-03-23T06:27:44.638Z,16.40
2023-03-23T06:30:18.587Z,17.08
2023-03-23T06:32:51.219Z,16.42
2023-03-23T06:35:32.286Z,15.60
2023-03-23T06:38:20.705Z,16.65
2023-03-23T06:40:58.898Z,17.25
2023-03-23T06:58:22.898Z,16.42
2023-03-23T07:01:00.147Z,16.50
2023-03-23T07:09:18.696Z,17.27
2023-03-23T07:11:50.918Z,16.70
2023-03-23T07:17:16.414Z,17.33
2023-03-23T07:20:08.581Z,17.02
2023-03-23T07:22:39.239Z,17.27
2023-03-23T07:28:17.466Z,16.83
2023-03-23T07:31:05.933Z,16.20
2023-03-23T07:33:36.719Z,17.10
2023-03-23T07:36:25.441Z,17.25
2023-03-23T07:39:13.949Z,16.90
2023-03-23T07:42:02.497Z,16.48
2023-03-23T07:44:45.721Z,16.77
2023-03-23T07:47:17.423Z,17.38
2023-03-23T07:49:51.002Z,17.77
2023-03-23T07:52:40.160Z,17.27
2023-03-23T07:55:20.644Z,17.20
2023-03-23T07:58:04.493Z,16.70
2023-03-23T08:00:36.316Z,17.37
2023-03-23T08:03:25.070Z,18.00
2023-03-23T08:06:13.711Z,17.52
2023-03-23T08:09:03.747Z,17.15
2023-03-23T08:11:52.488Z,18.40
2023-03-23T08:14:55.898Z,17.45
2023-03-23T08:20:45.327Z,17.65
2023-03-23T08:23:36.098Z,17.73
2023-03-23T08:26:25.591Z,18.05
2023-03-23T08:29:14.650Z,17.52
2023-03-23T08:32:03.018Z,18.20
2023-03-23T08:34:59.566Z,17.90
2023-03-23T08:37:48.988Z,18.30
2023-03-23T08:40:40.253Z,17.90
2023-03-23T08:43:36.407Z,18.52
2023-03-23T08:49:19.527Z,18.58
2023-03-23T08:52:06.956Z,18.30
2023-03-23T08:54:54.955Z,18.92
2023-03-23T08:57:50.573Z,19.02
2023-03-23T09:00:34.052Z,18.50
2023-03-23T09:03:22.963Z,18.95
2023-03-23T09:06:14.529Z,19.95
2023-03-23T09:08:48.966Z,19.58
2023-03-23T09:11:19.534Z,19.27
2023-03-23T09:14:09.349Z,19.63
2023-03-23T09:16:39.668Z,20.92
2023-03-23T09:19:12.369Z,19.60
2023-03-23T09:22:00.752Z,20.30
2023-03-23T09:24:31.321Z,20.30
2023-03-23T09:27:02.163Z,21.70
2023-03-23T09:29:32.528Z,19.88
2023-03-23T09:32:03.470Z,21.10
2023-03-23T09:37:20.270Z,21.48
2023-03-23T09:40:14.632Z,22.42
2023-03-23T09:43:02.784Z,22.95
2023-03-23T09:45:43.338Z,22.40
2023-03-23T09:48:37.229Z,21.58
2023-03-23T09:54:38.254Z,23.08
2023-03-23T09:57:18.359Z,22.25
2023-03-23T10:00:27.651Z,21.83
2023-03-23T10:03:29.688Z,22.90
2023-03-23T10:06:00.150Z,22.17
2023-03-23T10:08:58.684Z,23.88
2023-03-23T10:11:44.166Z,21.67
2023-03-23T10:14:32.290Z,23.42
2023-03-23T10:20:40.979Z,21.73
2023-03-23T10:23:56.861Z,22.48
2023-03-23T10:27:00.418Z,21.58
2023-03-23T10:29:35.775Z,22.52
2023-03-23T10:35:37.870Z,21.05
2023-03-23T10:38:28.158Z,21.08
2023-03-23T10:41:22.491Z,20.08
2023-03-23T10:43:53.210Z,21.02
2023-03-23T10:46:48.134Z,21.33
2023-03-23T10:49:27.376Z,22.55
2023-03-23T10:55:21.119Z,22.00
2023-03-23T10:58:07.454Z,22.27
2023-03-23T11:00:50.830Z,21.73
2023-03-23T11:03:29.788Z,21.58
2023-03-23T11:06:03.288Z,20.40
2023-03-23T11:08:38.017Z,21.85
2023-03-23T11:11:13.556Z,20.75
2023-03-23T11:13:47.836Z,20.50
2023-03-23T11:16:38.938Z,21.42
2023-03-23T11:19:25.869Z,21.38
2023-03-23T11:22:26.986Z,21.88
2023-03-23T11:27:49.620Z,21.10
2023-03-23T11:30:30.808Z,20.80
2023-03-23T11:33:06.365Z,20.25
2023-03-23T11:35:36.857Z,20.38
2023-03-23T11:38:09.724Z,20.87
2023-03-23T11:41:00.547Z,20.15
2023-03-23T11:43:30.946Z,19.55
2023-03-23T11:46:48.198Z,19.40
2023-03-23T11:55:35.651Z,19.17
2023-03-23T11:58:15.758Z,19.48
2023-03-23T12:00:51.965Z,19.52
2023-03-23T12:03:50.032Z,18.92
2023-03-23T12:06:34.728Z,19.15
2023-03-23T12:09:50.369Z,18.63
2023-03-23T12:12:34.189Z,19.40
2023-03-23T12:15:29.895Z,19.23
2023-03-23T12:18:20.338Z,19.27
2023-03-23T12:20:56.627Z,19.30
2023-03-23T12:23:34.233Z,19.15
2023-03-23T12:26:49.783Z,19.58
2023-03-23T12:29:35.347Z,19.45
2023-03-23T12:32:36.957Z,19.05
2023-03-23T12:35:29.800Z,18.55
2023-03-23T12:38:45.717Z,18.63
2023-03-23T12:41:22.311Z,19.85
2023-03-23T12:44:02.520Z,19.77
2023-03-23T12:46:45.888Z,20.17
2023-03-23T12:49:25.983Z,18.90
2023-03-23T12:52:39.315Z,19.08
2023-03-23T12:55:40.845Z,18.92
2023-03-23T12:58:20.358Z,18.23
2023-03-23T13:01:06.397Z,18.98
2023-03-23T13:04:11.591Z,18.65
2023-03-23T13:06:50.488Z,18.05
2023-03-23T13:09:52.137Z,16.83
2023-03-23T13:12:24.243Z,17.15
2023-03-23T13:15:28.023Z,16.65
2023-03-23T13:18:12.789Z,17.30
2023-03-23T13:21:15.055Z,16.33
2023-03-23T13:23:57.146Z,17.25
2023-03-23T13:26:28.423Z,17.60
2023-03-23T13:29:21.851Z,17.23
2023-03-23T13:31:53.504Z,16.80
2023-03-23T13:34:28.675Z,16.50
2023-03-23T13:37:08.168Z,16.35
2023-03-23T13:39:52.461Z,15.48
2023-03-23T13:42:26.225Z,15.18
2023-03-23T13:44:56.626Z,14.20
2023-03-23T13:47:27.233Z,14.98
2023-03-23T13:50:00.533Z,15.07
2023-03-23T13:55:46.597Z,14.88
2023-03-23T13:58:27.364Z,14.25
2023-03-23T14:01:19.775Z,14.73
2023-03-23T14:03:56.146Z,15.07
2023-03-23T14:06:30.306Z,14.60
2023-03-23T14:09:40.283Z,14.70
2023-03-23T14:12:23.329Z,15.52
2023-03-23T14:15:33.375Z,14.55
2023-03-23T14:18:07.610Z,14.35
2023-03-23T14:20:43.406Z,14.48
2023-03-23T14:23:21.494Z,14.02
2023-03-23T14:26:21.655Z,13.73
2023-03-23T14:28:57.020Z,14.10
2023-03-23T14:31:30.444Z,14.02
2023-03-23T14:34:32.709Z,13.48
2023-03-23T14:37:21.446Z,13.90
2023-03-23T14:40:15.774Z,14.23
2023-03-23T14:42:46.420Z,13.45
2023-03-23T14:45:20.464Z,13.57
2023-03-23T14:47:58.081Z,12.20
2023-03-23T14:50:57.962Z,12.90
2023-03-23T14:53:46.856Z,13.32
2023-03-23T14:56:20.103Z,12.18
2023-03-23T14:58:52.191Z,11.90
2023-03-23T15:04:23.586Z,11.95
2023-03-23T15:07:13.594Z,12.27
2023-03-23T15:09:47.465Z,11.43
2023-03-23T15:12:29.882Z,12.18
2023-03-23T15:15:04.982Z,11.85
2023-03-23T15:20:47.414Z,10.57
2023-03-23T15:23:36.673Z,11.43
2023-03-23T15:26:28.623Z,11.75
2023-03-23T15:29:26.924Z,11.70
2023-03-23T15:31:59.006Z,11.88
2023-03-23T15:34:44.250Z,11.80
2023-03-23T15:37:35.305Z,11.75
2023-03-23T15:40:26.963Z,12.18
2023-03-23T15:43:39.845Z,11.30
2023-03-23T15:46:14.067Z,11.30
2023-03-23T15:48:51.865Z,12.18
2023-03-23T15:54:27.193Z,12.05
2023-03-23T15:57:15.746Z,11.02
2023-03-23T15:59:46.086Z,10.13
2023-03-23T16:02:25.126Z,10.85
2023-03-23T16:05:15.932Z,11.70
2023-03-23T16:07:46.304Z,10.50
2023-03-23T16:10:24.949Z,10.52
2023-03-23T16:12:55.475Z,10.30
2023-03-23T16:15:25.833Z,10.33
2023-03-23T16:17:56.212Z,11.20
2023-03-23T16:20:27.746Z,10.17
2023-03-23T16:22:58.308Z,11.35
2023-03-23T16:25:28.819Z,10.88
2023-03-23T16:28:18.509Z,11.63
2023-03-23T16:30:49.370Z,11.02
2023-03-23T16:33:19.814Z,11.20
2023-03-23T16:35:50.458Z,10.90
2023-03-23T16:38:21.378Z,10.93
2023-03-23T16:40:52.009Z,9.85
2023-03-23T16:43:23.522Z,11.65
2023-03-23T16:45:58.998Z,10.48
2023-03-23T16:51:15.054Z,10.73
2023-03-23T16:53:45.566Z,10.43
2023-03-23T16:56:36.943Z,9.98
2023-03-23T16:59:07.842Z,9.93
2023-03-23T17:01:38.459Z,10.30
2023-03-23T17:04:09.371Z,9.93
2023-03-23T17:06:59.808Z,11.07
2023-03-23T17:09:51.487Z,10.75
2023-03-23T17:12:22.550Z,10.73
2023-03-23T17:14:52.968Z,10.68
2023-03-23T17:17:23.354Z,10.40
2023-03-23T17:19:54.365Z,10.48
2023-03-23T17:22:25.404Z,10.93
2023-03-23T17:24:59.323Z,10.32
2023-03-23T17:27:30.113Z,10.85
2023-03-23T17:30:00.618Z,10.88
2023-03-23T17:32:34.284Z,11.13
2023-03-23T17:35:04.905Z,10.80
2023-03-23T17:37:39.366Z,10.80
2023-03-23T17:40:12.708Z,11.63
2023-03-23T17:45:31.724Z,10.75
2023-03-23T17:48:02.077Z,10.38
2023-03-23T17:50:51.994Z,10.20
2023-03-23T17:56:26.386Z,11.10
2023-03-23T17:58:56.864Z,10.97
2023-03-23T18:01:27.749Z,11.37
2023-03-23T18:03:58.172Z,11.13
2023-03-23T18:06:28.742Z,10.73
2023-03-23T18:08:59.050Z,11.73
2023-03-23T18:11:30.287Z,11.37
2023-03-23T18:14:18.804Z,10.73
2023-03-23T18:16:49.721Z,11.75
2023-03-23T18:19:20.065Z,11.65
2023-03-23T18:21:50.336Z,11.65
2023-03-23T18:24:20.488Z,11.80
2023-03-23T18:26:50.923Z,11.90
2023-03-23T18:29:21.339Z,11.87
2023-03-23T18:31:51.610Z,11.65
2023-03-23T18:34:21.939Z,11.68
2023-03-23T18:36:52.211Z,12.70
2023-03-23T18:39:22.530Z,12.48
2023-03-23T18:41:52.900Z,12.57
2023-03-23T18:44:24.966Z,11.90
2023-03-23T18:46:55.368Z,11.43
2023-03-23T18:49:26.192Z,11.93
2023-03-23T18:52:14.423Z,11.40
2023-03-23T18:54:47.600Z,11.88
2023-03-23T18:57:20.411Z,12.15
2023-03-23T18:59:50.839Z,12.38
2023-03-23T19:02:22.626Z,12.33
2023-03-23T19:04:53.634Z,12.57
2023-03-23T19:07:24.065Z,12.50
2023-03-23T19:09:54.230Z,11.73
2023-03-23T19:12:25.559Z,11.33
2023-03-23T19:15:13.919Z,11.88
2023-03-23T19:17:44.554Z,11.68
2023-03-23T19:20:26.938Z,12.67
2023-03-23T19:23:06.727Z,13.10
2023-03-23T19:25:37.155Z,12.27
2023-03-23T19:30:45.873Z,13.10
2023-03-23T19:33:17.093Z,12.15
2023-03-23T19:36:12.254Z,13.18
2023-03-23T19:38:43.767Z,12.77
2023-03-23T19:41:14.134Z,14.07
2023-03-23T19:43:45.759Z,13.02
2023-03-23T19:46:16.813Z,13.60
2023-03-23T19:48:47.151Z,13.20
2023-03-23T19:51:20.941Z,12.90
2023-03-23T19:54:10.315Z,12.70
2023-03-23T19:56:40.804Z,14.40
2023-03-23T19:59:13.930Z,14.00
2023-03-23T20:01:45.020Z,13.38
2023-03-23T20:07:02.793Z,13.63
2023-03-23T20:09:51.902Z,14.07
2023-03-23T20:12:22.338Z,13.00
2023-03-23T20:14:53.140Z,13.90
2023-03-23T20:17:23.427Z,14.02
2023-03-23T20:19:54.007Z,13.67
2023-03-23T20:23:02.224Z,13.25
2023-03-23T20:25:51.350Z,14.10
2023-03-23T20:31:18.888Z,13.38
2023-03-23T20:33:42.392Z,14.00
2023-03-23T20:36:13.493Z,13.93
2023-03-23T20:38:45.080Z,14.52
2023-03-23T20:44:22.124Z,14.07
2023-03-23T20:46:54.062Z,13.63
2023-03-23T20:49:25.371Z,13.52
2023-03-23T20:54:27.581Z,14.20
2023-03-23T20:57:00.924Z,13.67
2023-03-23T20:59:31.537Z,14.73
2023-03-23T21:02:04.630Z,13.97
2023-03-23T21:07:20.626Z,13.45
2023-03-23T21:10:09.672Z,13.85
2023-03-23T21:12:40.468Z,14.05
2023-03-23T21:15:10.937Z,14.53
2023-03-23T21:17:41.026Z,13.68
2023-03-23T21:20:13.442Z,14.10
2023-03-23T21:23:03.853Z,13.80
2023-03-23T21:25:37.015Z,14.20
2023-03-23T21:28:09.480Z,14.57
2023-03-23T21:30:39.858Z,14.40
2023-03-23T21:33:11.310Z,13.57
2023-03-23T21:35:42.196Z,13.68
2023-03-23T21:38:16.735Z,13.48
2023-03-23T21:40:47.315Z,14.75
2023-03-23T21:43:19.165Z,13.98
2023-03-23T21:45:50.534Z,13.65
2023-03-23T21:48:20.818Z,14.95
2023-03-23T21:50:52.819Z,13.48
2023-03-23T21:53:25.233Z,13.98
2023-03-23T21:56:14.563Z,14.05
2023-03-23T21:59:04.082Z,14.07
2023-03-23T22:01:34.238Z,14.23
2023-03-23T22:04:04.412Z,14.07
2023-03-23T22:06:36.741Z,13.47
2023-03-23T22:09:12.041Z,14.02
2023-03-23T22:11:43.362Z,13.73
2023-03-23T22:14:14.949Z,13.40
2023-03-23T22:16:45.579Z,13.57
2023-03-23T22:19:16.085Z,12.77
2023-03-23T22:21:46.714Z,14.07
2023-03-23T22:24:17.140Z,14.70
2023-03-23T22:26:47.791Z,12.90
2023-03-23T22:29:19.442Z,14.18
2023-03-23T22:31:50.097Z,13.77
2023-03-23T22:34:21.050Z,14.10
2023-03-23T22:36:51.560Z,13.98
2023-03-23T22:39:21.991Z,13.40
2023-03-23T22:41:52.725Z,13.48
2023-03-23T22:44:23.130Z,13.38
2023-03-23T22:46:54.687Z,12.90
2023-03-23T22:49:25.191Z,12.70
2023-03-23T22:51:55.976Z,13.20
2023-03-23T22:54:26.377Z,13.63
2023-03-23T22:56:57.947Z,13.20
2023-03-23T22:59:29.610Z,13.32
2023-03-23T23:04:08.906Z,17.80
2023-03-23T23:06:39.538Z,15.95
2023-03-23T23:09:10.379Z,14.37
2023-03-23T23:11:41.171Z,18.27
2023-03-23T23:14:11.436Z,16.73
2023-03-23T23:16:42.214Z,18.27
2023-03-23T23:19:12.342Z,15.90
2023-03-23T23:21:43.541Z,16.15
2023-03-23T23:24:13.916Z,14.98
2023-03-23T23:26:44.248Z,16.20
2023-03-23T23:29:14.802Z,14.60
2023-03-23T23:31:45.507Z,16.23
2023-03-23T23:34:16.726Z,15.57
2023-03-23T23:39:18.639Z,14.85
2023-03-23T23:41:50.004Z,15.48
2023-03-23T23:44:20.429Z,14.35
2023-03-23T23:46:50.727Z,13.93
2023-03-23T23:49:25.302Z,14.45
2023-03-23T23:51:55.691Z,14.52
2023-03-23T23:54:31.983Z,13.43
2023-03-23T23:57:03.772Z,15.55
2023-03-23T23:59:34.190Z,15.13
